Flight Track Log - Related Links

Times and Time Zones

All times are in EST time to prevent confusion due to time zone crossing. See the N894SA flight status page for this flight to view local times or setup timezone preferences in your user account.

Time Position Orientation Groundspeed Altitude Reporting Facility
EST Latitude Longitude Course Direction KTS MPH feet Rate Location/Type
Mon 04:15:06 PM 27.0667 -82.4500 138° Southeast 69 79 500  Level Tampa TRACON
Mon 04:16:06 PM 27.0500 -82.4333 138° Southeast 93 107 1,100 650 Climbing Tampa TRACON
Mon 04:17:06 PM 27.0500 -82.4167 90° East 88 101 1,800 694 Climbing Tampa TRACON
Mon 04:18:07 PM 27.0500 -82.3833 90° East 90 104 2,500 178 Climbing Tampa TRACON
Mon 04:20:00 PM 27.0302 -82.3139 108° East  Level FlightAware
Mon 04:27:00 PM 26.9664 -82.0539 107° East  Level FlightAware
Mon 04:28:00 PM 26.9561 -82.0170 107° East  Level FlightAware
Mon 04:29:00 PM 26.9457 -81.9801 107° East  Level FlightAware
Mon 04:30:00 PM 26.9353 -81.9432 108° East  Level FlightAware
Mon 04:31:00 PM 26.9249 -81.9063 108° East  Level FlightAware
Mon 04:32:00 PM 26.9146 -81.8694 108° East  Level FlightAware
Mon 04:33:00 PM 26.9041 -81.8326 108° East  Level FlightAware
Mon 04:34:00 PM 26.8937 -81.7957 108° East  Level FlightAware
Mon 04:35:00 PM 26.8833 -81.7588 108° East  Level FlightAware
Mon 04:35:02 PM 26.9117 -81.6692 108° East 153 176 5,000  Level Miami Center
Mon 04:36:00 PM 26.8729 -81.7220 108° East  Level FlightAware
Mon 04:36:02 PM 26.9047 -81.6200 99° East 153 176 5,000  Level Miami Center
Mon 04:37:00 PM 26.8624 -81.6851 108° East  Level FlightAware
Mon 04:37:02 PM 26.9000 -81.5778 97° East 153 176 5,000  Level Miami Center
Mon 04:38:00 PM 26.8519 -81.6483 108° East  Level FlightAware
Mon 04:38:02 PM 26.8933 -81.5264 98° East 153 176 5,000  Level Miami Center
Mon 04:39:00 PM 26.8415 -81.6114 108° East  Level FlightAware
Mon 04:39:02 PM 26.8864 -81.4819 100° East 148 170 5,000  Level Miami Center
Mon 04:40:02 PM 26.8817 -81.4328 96° East 148 170 5,000  Level Miami Center
Mon 04:41:02 PM 26.8747 -81.3883 100° East 143 165 5,000  Level Miami Center
Mon 04:42:02 PM 26.8697 -81.3414 97° East 143 165 5,000  Level Miami Center
Mon 04:43:02 PM 26.8628 -81.2969 100° East 143 165 5,000  Level Miami Center
Mon 04:44:02 PM 26.8581 -81.2503 96° East 143 165 5,000  Level Miami Center
Mon 04:45:02 PM 26.8508 -81.2081 101° East 143 165 5,000  Level Miami Center
Mon 04:46:02 PM 26.8461 -81.1636 97° East 143 165 5,000  Level Miami Center
Mon 04:47:02 PM 26.8411 -81.1169 97° East 143 165 5,000  Level Miami Center
Mon 04:48:02 PM 26.8342 -81.0703 99° East 143 165 5,000  Level Miami Center
Mon 04:49:02 PM 26.8269 -81.0256 100° East 148 170 5,000  Level Miami Center
Mon 04:50:02 PM 26.8222 -80.9789 96° East 142 163 5,000  Level Miami Center
Mon 04:51:02 PM 26.8169 -80.9392 98° East 142 163 5,000  Level Miami Center
Mon 04:52:02 PM 26.8100 -80.8947 100° East 142 163 5,000  Level Miami Center
Mon 04:53:02 PM 26.8028 -80.8456 99° East 142 163 5,000  Level Miami Center
Mon 04:54:02 PM 26.7958 -80.7989 99° East 142 163 5,000  Level Miami Center
Mon 04:55:02 PM 26.7928 -80.7522 94° East 142 163 5,000  Level Miami Center
Mon 04:56:02 PM 26.7856 -80.7125 102° East 142 163 5,000  Level Miami Center
Mon 04:57:02 PM 26.7742 -80.6656 105° East 142 163 5,000  Level Miami Center
Mon 04:58:02 PM 26.7417 -80.6367 142° Southeast 142 163 5,000  Level Miami Center
Mon 04:59:02 PM 26.7133 -80.5961 128° Southeast 151 174 5,000 -50 Level Miami Center
Mon 05:00:02 PM 26.6914 -80.5628 126° Southeast 151 174 4,900 -300 Descending Miami Center
Mon 05:01:02 PM 26.6592 -80.5178 129° Southeast 157 181 4,400 -500 Descending Miami Center
Mon 05:02:02 PM 26.6350 -80.4822 127° Southeast 157 181 3,900 -377 Descending Miami Center
Mon 05:04:00 PM 26.5918 -80.4149 126° Southeast  Level FlightAware
Mon 05:04:45 PM 26.5581 -80.3731 126° Southeast 160 184 3,000  Level Miami Center
Mon 05:05:34 PM 26.5381 -80.3422 126° Southeast 145 167 3,000 -273 Level Miami Center
Mon 05:06:35 PM 26.5117 -80.3067 130° Southeast 146 168 2,500 -492 Descending Miami Center
Mon 05:07:36 PM 26.4836 -80.2639 126° Southeast 165 190 2,000 -246 Descending Miami Center
Mon 05:08:37 PM 26.4553 -80.2236 128° Southeast 151 174 2,000 -98 Level Miami Center
Mon 05:09:39 PM 26.4286 -80.1975 139° Southeast 142 163 1,800 -293 Descending Miami Center
Mon 05:10:40 PM 26.3939 -80.1686 143° Southeast 167 192 1,400 -492 Descending Miami Center
Mon 05:11:41 PM 26.3672 -80.1425 139° Southeast 118 136 800 -590 Descending Miami Center
Mon 05:12:42 PM 26.3678 -80.1169 89° East 83 96 200 -590 Descending Miami Center

Login

Don't have an account? Register now (free) for customized features, flight alerts, and more!